sensor_id;sensor_type;location;lat;lon;timestamp;temperature;humidity
981;DHT22;479;53.514;9.994;2022-11-23T00:01:31;2.10;99.90
981;DHT22;479;53.514;9.994;2022-11-23T00:04:01;2.10;99.90
981;DHT22;479;53.514;9.994;2022-11-23T00:06:28;2.10;99.90
981;DHT22;479;53.514;9.994;2022-11-23T00:08:55;2.10;99.90
981;DHT22;479;53.514;9.994;2022-11-23T00:11:23;2.10;99.90
981;DHT22;479;53.514;9.994;2022-11-23T00:13:51;2.10;99.90
981;DHT22;479;53.514;9.994;2022-11-23T00:16:20;2.10;99.90
981;DHT22;479;53.514;9.994;2022-11-23T00:18:48;2.10;99.90
981;DHT22;479;53.514;9.994;2022-11-23T00:21:17;2.10;99.90
981;DHT22;479;53.514;9.994;2022-11-23T00:23:45;2.10;99.90
981;DHT22;479;53.514;9.994;2022-11-23T00:26:12;2.10;99.90
981;DHT22;479;53.514;9.994;2022-11-23T00:28:40;2.10;99.90
981;DHT22;479;53.514;9.994;2022-11-23T00:31:09;2.10;99.90
981;DHT22;479;53.514;9.994;2022-11-23T00:33:37;2.10;99.90
981;DHT22;479;53.514;9.994;2022-11-23T00:36:06;2.10;99.90
981;DHT22;479;53.514;9.994;2022-11-23T00:38:33;2.10;99.90
981;DHT22;479;53.514;9.994;2022-11-23T00:41:02;2.10;99.90
981;DHT22;479;53.514;9.994;2022-11-23T00:43:30;2.10;99.90
981;DHT22;479;53.514;9.994;2022-11-23T00:46:07;2.10;99.90
981;DHT22;479;53.514;9.994;2022-11-23T00:48:34;2.10;99.90
981;DHT22;479;53.514;9.994;2022-11-23T00:51:04;2.10;99.90
981;DHT22;479;53.514;9.994;2022-11-23T00:53:32;2.20;99.90
981;DHT22;479;53.514;9.994;2022-11-23T00:55:58;2.20;99.90
981;DHT22;479;53.514;9.994;2022-11-23T00:58:25;2.20;99.90
981;DHT22;479;53.514;9.994;2022-11-23T01:01:00;2.20;99.90
981;DHT22;479;53.514;9.994;2022-11-23T01:03:27;2.20;99.90
981;DHT22;479;53.514;9.994;2022-11-23T01:05:54;2.20;99.90
981;DHT22;479;53.514;9.994;2022-11-23T01:08:22;2.20;99.90
981;DHT22;479;53.514;9.994;2022-11-23T01:10:50;2.20;99.90
981;DHT22;479;53.514;9.994;2022-11-23T01:13:17;2.20;99.90
981;DHT22;479;53.514;9.994;2022-11-23T01:15:48;2.20;99.90
981;DHT22;479;53.514;9.994;2022-11-23T01:18:15;2.20;99.90
981;DHT22;479;53.514;9.994;2022-11-23T01:20:42;2.20;99.90
981;DHT22;479;53.514;9.994;2022-11-23T01:23:09;2.20;99.90
981;DHT22;479;53.514;9.994;2022-11-23T01:25:37;2.10;99.90
981;DHT22;479;53.514;9.994;2022-11-23T01:28:04;2.20;99.90
981;DHT22;479;53.514;9.994;2022-11-23T01:30:31;2.20;99.90
981;DHT22;479;53.514;9.994;2022-11-23T01:32:59;2.20;99.90
981;DHT22;479;53.514;9.994;2022-11-23T01:35:26;2.20;99.90
981;DHT22;479;53.514;9.994;2022-11-23T01:37:53;2.20;99.90
981;DHT22;479;53.514;9.994;2022-11-23T01:40:20;2.20;99.90
981;DHT22;479;53.514;9.994;2022-11-23T01:42:52;2.20;99.90
981;DHT22;479;53.514;9.994;2022-11-23T01:45:31;2.30;99.90
981;DHT22;479;53.514;9.994;2022-11-23T01:47:58;2.30;99.90
981;DHT22;479;53.514;9.994;2022-11-23T01:50:25;2.30;99.90
981;DHT22;479;53.514;9.994;2022-11-23T01:52:52;2.30;99.90
981;DHT22;479;53.514;9.994;2022-11-23T01:55:19;2.30;99.90
981;DHT22;479;53.514;9.994;2022-11-23T01:57:47;2.30;99.90
981;DHT22;479;53.514;9.994;2022-11-23T02:00:14;2.30;99.90
981;DHT22;479;53.514;9.994;2022-11-23T02:02:46;2.40;99.90
981;DHT22;479;53.514;9.994;2022-11-23T02:05:16;2.40;99.90
981;DHT22;479;53.514;9.994;2022-11-23T02:07:44;2.40;99.90
981;DHT22;479;53.514;9.994;2022-11-23T02:10:14;2.40;99.90
981;DHT22;479;53.514;9.994;2022-11-23T02:12:41;2.40;99.90
981;DHT22;479;53.514;9.994;2022-11-23T02:15:12;2.50;99.90
981;DHT22;479;53.514;9.994;2022-11-23T02:17:40;2.50;99.90
981;DHT22;479;53.514;9.994;2022-11-23T02:20:10;2.50;99.90
981;DHT22;479;53.514;9.994;2022-11-23T02:22:41;2.50;99.90
981;DHT22;479;53.514;9.994;2022-11-23T02:25:15;2.50;99.90
981;DHT22;479;53.514;9.994;2022-11-23T02:27:46;2.50;99.90
981;DHT22;479;53.514;9.994;2022-11-23T02:30:13;2.50;99.90
981;DHT22;479;53.514;9.994;2022-11-23T02:32:40;2.50;99.90
981;DHT22;479;53.514;9.994;2022-11-23T02:35:09;2.60;99.90
981;DHT22;479;53.514;9.994;2022-11-23T02:37:38;2.60;99.90
981;DHT22;479;53.514;9.994;2022-11-23T02:40:13;2.60;99.90
981;DHT22;479;53.514;9.994;2022-11-23T02:42:43;2.60;99.90
981;DHT22;479;53.514;9.994;2022-11-23T02:45:20;2.60;99.90
981;DHT22;479;53.514;9.994;2022-11-23T02:47:47;2.70;99.90
981;DHT22;479;53.514;9.994;2022-11-23T02:50:14;2.60;99.90
981;DHT22;479;53.514;9.994;2022-11-23T02:52:42;2.60;99.90
981;DHT22;479;53.514;9.994;2022-11-23T02:55:09;2.70;99.90
981;DHT22;479;53.514;9.994;2022-11-23T02:57:36;2.70;99.90
981;DHT22;479;53.514;9.994;2022-11-23T03:00:03;2.70;99.90
981;DHT22;479;53.514;9.994;2022-11-23T03:02:32;2.70;99.90
981;DHT22;479;53.514;9.994;2022-11-23T03:04:58;2.80;99.90
981;DHT22;479;53.514;9.994;2022-11-23T03:07:25;2.80;99.90
981;DHT22;479;53.514;9.994;2022-11-23T03:09:52;2.80;99.90
981;DHT22;479;53.514;9.994;2022-11-23T03:12:19;2.90;99.90
981;DHT22;479;53.514;9.994;2022-11-23T03:14:46;2.90;99.90
981;DHT22;479;53.514;9.994;2022-11-23T03:17:13;2.90;99.90
981;DHT22;479;53.514;9.994;2022-11-23T03:19:43;2.90;99.90
981;DHT22;479;53.514;9.994;2022-11-23T03:22:12;2.90;99.90
981;DHT22;479;53.514;9.994;2022-11-23T03:24:38;2.90;99.90
981;DHT22;479;53.514;9.994;2022-11-23T03:27:10;2.90;99.90
981;DHT22;479;53.514;9.994;2022-11-23T03:29:38;2.90;99.90
981;DHT22;479;53.514;9.994;2022-11-23T03:32:10;2.90;99.90
981;DHT22;479;53.514;9.994;2022-11-23T03:34:39;2.90;99.90
981;DHT22;479;53.514;9.994;2022-11-23T03:37:08;3.00;99.90
981;DHT22;479;53.514;9.994;2022-11-23T03:39:35;3.00;99.90
981;DHT22;479;53.514;9.994;2022-11-23T03:42:28;3.00;99.90
981;DHT22;479;53.514;9.994;2022-11-23T03:44:55;3.00;99.90
981;DHT22;479;53.514;9.994;2022-11-23T03:47:23;3.00;99.90
981;DHT22;479;53.514;9.994;2022-11-23T03:49:49;3.00;99.90
981;DHT22;479;53.514;9.994;2022-11-23T03:52:17;3.00;99.90
981;DHT22;479;53.514;9.994;2022-11-23T03:54:46;3.00;99.90
981;DHT22;479;53.514;9.994;2022-11-23T03:57:13;3.10;99.90
981;DHT22;479;53.514;9.994;2022-11-23T03:59:40;3.10;99.90
981;DHT22;479;53.514;9.994;2022-11-23T04:02:07;3.10;99.90
981;DHT22;479;53.514;9.994;2022-11-23T04:04:42;3.10;99.90
981;DHT22;479;53.514;9.994;2022-11-23T04:07:30;3.10;99.90
981;DHT22;479;53.514;9.994;2022-11-23T04:10:00;3.10;99.90
981;DHT22;479;53.514;9.994;2022-11-23T04:12:50;3.10;99.90
981;DHT22;479;53.514;9.994;2022-11-23T04:15:17;3.10;99.90
981;DHT22;479;53.514;9.994;2022-11-23T04:17:44;3.10;99.90
981;DHT22;479;53.514;9.994;2022-11-23T04:20:12;3.10;99.90
981;DHT22;479;53.514;9.994;2022-11-23T04:22:40;3.10;99.90
981;DHT22;479;53.514;9.994;2022-11-23T04:25:08;3.10;99.90
981;DHT22;479;53.514;9.994;2022-11-23T04:27:35;3.20;99.90
981;DHT22;479;53.514;9.994;2022-11-23T04:30:03;3.10;99.90
981;DHT22;479;53.514;9.994;2022-11-23T04:32:30;3.20;99.90
981;DHT22;479;53.514;9.994;2022-11-23T04:34:58;3.20;99.90
981;DHT22;479;53.514;9.994;2022-11-23T04:37:25;3.20;99.90
981;DHT22;479;53.514;9.994;2022-11-23T04:39:53;3.20;99.90
981;DHT22;479;53.514;9.994;2022-11-23T04:42:34;3.20;99.90
981;DHT22;479;53.514;9.994;2022-11-23T04:45:01;3.20;99.90
981;DHT22;479;53.514;9.994;2022-11-23T04:47:29;3.20;99.90
981;DHT22;479;53.514;9.994;2022-11-23T04:50:00;3.20;99.90
981;DHT22;479;53.514;9.994;2022-11-23T04:52:27;3.20;99.90
981;DHT22;479;53.514;9.994;2022-11-23T04:54:56;3.20;99.90
981;DHT22;479;53.514;9.994;2022-11-23T04:57:23;3.20;99.90
981;DHT22;479;53.514;9.994;2022-11-23T04:59:51;3.20;99.90
981;DHT22;479;53.514;9.994;2022-11-23T05:02:18;3.20;99.90
981;DHT22;479;53.514;9.994;2022-11-23T05:04:53;3.30;99.90
981;DHT22;479;53.514;9.994;2022-11-23T05:07:24;3.30;99.90
981;DHT22;479;53.514;9.994;2022-11-23T05:09:57;3.30;99.90
981;DHT22;479;53.514;9.994;2022-11-23T05:12:25;3.30;99.90
981;DHT22;479;53.514;9.994;2022-11-23T05:14:51;3.30;99.90
981;DHT22;479;53.514;9.994;2022-11-23T05:17:23;3.30;99.90
981;DHT22;479;53.514;9.994;2022-11-23T05:19:52;3.30;99.90
981;DHT22;479;53.514;9.994;2022-11-23T05:22:20;3.30;99.90
981;DHT22;479;53.514;9.994;2022-11-23T05:24:47;3.30;99.90
981;DHT22;479;53.514;9.994;2022-11-23T05:27:19;3.30;99.90
981;DHT22;479;53.514;9.994;2022-11-23T05:29:46;3.20;99.90
981;DHT22;479;53.514;9.994;2022-11-23T05:32:13;3.20;99.90
981;DHT22;479;53.514;9.994;2022-11-23T05:34:41;3.20;99.90
981;DHT22;479;53.514;9.994;2022-11-23T05:37:10;3.30;99.90
981;DHT22;479;53.514;9.994;2022-11-23T05:39:46;3.30;99.90
981;DHT22;479;53.514;9.994;2022-11-23T05:42:13;3.30;99.90
981;DHT22;479;53.514;9.994;2022-11-23T05:44:43;3.30;99.90
981;DHT22;479;53.514;9.994;2022-11-23T05:47:17;3.30;99.90
981;DHT22;479;53.514;9.994;2022-11-23T05:49:46;3.30;99.90
981;DHT22;479;53.514;9.994;2022-11-23T05:52:16;3.30;99.90
981;DHT22;479;53.514;9.994;2022-11-23T05:54:43;3.30;99.90
981;DHT22;479;53.514;9.994;2022-11-23T05:57:12;3.20;99.90
981;DHT22;479;53.514;9.994;2022-11-23T05:59:42;3.20;99.90
981;DHT22;479;53.514;9.994;2022-11-23T06:02:15;3.20;99.90
981;DHT22;479;53.514;9.994;2022-11-23T06:04:43;3.20;99.90
981;DHT22;479;53.514;9.994;2022-11-23T06:07:14;3.20;99.90
981;DHT22;479;53.514;9.994;2022-11-23T06:10:00;3.20;99.90
981;DHT22;479;53.514;9.994;2022-11-23T06:12:27;3.20;99.90
981;DHT22;479;53.514;9.994;2022-11-23T06:14:55;3.20;99.90
981;DHT22;479;53.514;9.994;2022-11-23T06:17:24;3.30;99.90
981;DHT22;479;53.514;9.994;2022-11-23T06:19:54;3.30;99.90
981;DHT22;479;53.514;9.994;2022-11-23T06:22:22;3.20;99.90
981;DHT22;479;53.514;9.994;2022-11-23T06:24:58;3.30;99.90
981;DHT22;479;53.514;9.994;2022-11-23T06:27:37;3.30;99.90
981;DHT22;479;53.514;9.994;2022-11-23T06:30:16;3.20;99.90
981;DHT22;479;53.514;9.994;2022-11-23T06:32:44;3.30;99.90
981;DHT22;479;53.514;9.994;2022-11-23T06:35:10;3.30;99.90
981;DHT22;479;53.514;9.994;2022-11-23T06:37:39;3.30;99.90
981;DHT22;479;53.514;9.994;2022-11-23T06:40:08;3.30;99.90
981;DHT22;479;53.514;9.994;2022-11-23T06:42:35;3.40;99.90
981;DHT22;479;53.514;9.994;2022-11-23T06:45:03;3.40;99.90
981;DHT22;479;53.514;9.994;2022-11-23T06:47:31;3.40;99.90
981;DHT22;479;53.514;9.994;2022-11-23T06:49:58;3.40;99.90
981;DHT22;479;53.514;9.994;2022-11-23T06:52:28;3.40;99.90
981;DHT22;479;53.514;9.994;2022-11-23T06:54:55;3.50;99.90
981;DHT22;479;53.514;9.994;2022-11-23T06:57:23;3.50;99.90
981;DHT22;479;53.514;9.994;2022-11-23T06:59:52;3.50;99.90
981;DHT22;479;53.514;9.994;2022-11-23T07:02:24;3.50;99.90
981;DHT22;479;53.514;9.994;2022-11-23T07:04:55;3.50;99.90
981;DHT22;479;53.514;9.994;2022-11-23T07:07:23;3.50;99.90
981;DHT22;479;53.514;9.994;2022-11-23T07:09:58;3.50;99.90
981;DHT22;479;53.514;9.994;2022-11-23T07:12:31;3.60;99.90
981;DHT22;479;53.514;9.994;2022-11-23T07:14:59;3.60;99.90
981;DHT22;479;53.514;9.994;2022-11-23T07:17:31;3.60;99.90
981;DHT22;479;53.514;9.994;2022-11-23T07:19:59;3.60;99.90
981;DHT22;479;53.514;9.994;2022-11-23T07:22:26;3.70;99.90
981;DHT22;479;53.514;9.994;2022-11-23T07:24:52;3.70;99.90
981;DHT22;479;53.514;9.994;2022-11-23T07:27:19;3.70;99.90
981;DHT22;479;53.514;9.994;2022-11-23T07:29:46;3.70;99.90
981;DHT22;479;53.514;9.994;2022-11-23T07:32:13;3.70;99.90
981;DHT22;479;53.514;9.994;2022-11-23T07:34:40;3.80;99.90
981;DHT22;479;53.514;9.994;2022-11-23T07:37:09;3.80;99.90
981;DHT22;479;53.514;9.994;2022-11-23T07:39:37;3.80;99.90
981;DHT22;479;53.514;9.994;2022-11-23T07:42:04;3.80;99.90
981;DHT22;479;53.514;9.994;2022-11-23T07:44:36;3.90;99.90
981;DHT22;479;53.514;9.994;2022-11-23T07:47:04;3.90;99.90
981;DHT22;479;53.514;9.994;2022-11-23T07:49:31;4.00;99.90
981;DHT22;479;53.514;9.994;2022-11-23T07:51:57;4.00;99.90
981;DHT22;479;53.514;9.994;2022-11-23T07:54:26;4.10;99.90
981;DHT22;479;53.514;9.994;2022-11-23T07:56:52;4.10;99.90
981;DHT22;479;53.514;9.994;2022-11-23T07:59:19;4.10;99.90
981;DHT22;479;53.514;9.994;2022-11-23T08:01:46;4.20;99.90
981;DHT22;479;53.514;9.994;2022-11-23T08:04:12;4.20;99.90
981;DHT22;479;53.514;9.994;2022-11-23T08:06:39;4.30;99.90
981;DHT22;479;53.514;9.994;2022-11-23T08:09:06;4.30;99.90
981;DHT22;479;53.514;9.994;2022-11-23T08:11:34;4.40;99.90
981;DHT22;479;53.514;9.994;2022-11-23T08:14:01;4.40;99.90
981;DHT22;479;53.514;9.994;2022-11-23T08:16:28;4.40;99.90
981;DHT22;479;53.514;9.994;2022-11-23T08:18:55;4.50;99.90
981;DHT22;479;53.514;9.994;2022-11-23T08:21:22;4.50;99.90
981;DHT22;479;53.514;9.994;2022-11-23T08:23:48;4.60;99.90
981;DHT22;479;53.514;9.994;2022-11-23T08:26:15;4.60;99.90
981;DHT22;479;53.514;9.994;2022-11-23T08:28:43;4.60;99.90
981;DHT22;479;53.514;9.994;2022-11-23T08:31:10;4.70;99.90
981;DHT22;479;53.514;9.994;2022-11-23T08:33:39;4.70;99.90
981;DHT22;479;53.514;9.994;2022-11-23T08:36:07;4.70;99.90
981;DHT22;479;53.514;9.994;2022-11-23T08:38:34;4.70;99.90
981;DHT22;479;53.514;9.994;2022-11-23T08:41:02;4.80;99.90
981;DHT22;479;53.514;9.994;2022-11-23T08:43:30;4.80;99.90
981;DHT22;479;53.514;9.994;2022-11-23T08:45:59;4.90;99.90
981;DHT22;479;53.514;9.994;2022-11-23T08:48:26;5.00;99.90
981;DHT22;479;53.514;9.994;2022-11-23T08:50:53;5.00;99.90
981;DHT22;479;53.514;9.994;2022-11-23T08:53:20;5.00;99.90
981;DHT22;479;53.514;9.994;2022-11-23T08:55:47;5.10;99.90
981;DHT22;479;53.514;9.994;2022-11-23T08:58:13;5.10;99.90
981;DHT22;479;53.514;9.994;2022-11-23T09:00:40;5.20;99.90
981;DHT22;479;53.514;9.994;2022-11-23T09:03:08;5.20;99.90
981;DHT22;479;53.514;9.994;2022-11-23T09:05:37;5.30;99.90
981;DHT22;479;53.514;9.994;2022-11-23T09:08:04;5.40;99.90
981;DHT22;479;53.514;9.994;2022-11-23T09:10:31;5.50;99.90
981;DHT22;479;53.514;9.994;2022-11-23T09:12:58;5.60;99.90
981;DHT22;479;53.514;9.994;2022-11-23T09:15:25;5.60;99.90
981;DHT22;479;53.514;9.994;2022-11-23T09:17:52;5.80;99.90
981;DHT22;479;53.514;9.994;2022-11-23T09:20:20;6.00;99.90
981;DHT22;479;53.514;9.994;2022-11-23T09:22:50;6.20;99.90
981;DHT22;479;53.514;9.994;2022-11-23T09:25:17;6.30;99.90
981;DHT22;479;53.514;9.994;2022-11-23T09:27:44;6.20;99.90
981;DHT22;479;53.514;9.994;2022-11-23T09:30:12;6.10;99.90
981;DHT22;479;53.514;9.994;2022-11-23T09:32:39;6.00;99.90
981;DHT22;479;53.514;9.994;2022-11-23T09:35:07;6.10;99.90
981;DHT22;479;53.514;9.994;2022-11-23T09:37:35;6.20;99.90
981;DHT22;479;53.514;9.994;2022-11-23T09:40:02;6.40;99.90
981;DHT22;479;53.514;9.994;2022-11-23T09:42:39;7.00;99.90
981;DHT22;479;53.514;9.994;2022-11-23T09:45:15;7.60;99.90
981;DHT22;479;53.514;9.994;2022-11-23T09:48:13;8.10;99.90
981;DHT22;479;53.514;9.994;2022-11-23T09:50:45;8.10;99.90
981;DHT22;479;53.514;9.994;2022-11-23T09:53:18;7.90;99.90
981;DHT22;479;53.514;9.994;2022-11-23T09:55:47;7.70;99.90
981;DHT22;479;53.514;9.994;2022-11-23T09:58:17;7.60;99.90
981;DHT22;479;53.514;9.994;2022-11-23T10:00:47;7.50;99.90
981;DHT22;479;53.514;9.994;2022-11-23T10:03:16;7.40;99.90
981;DHT22;479;53.514;9.994;2022-11-23T10:05:49;7.30;99.90
981;DHT22;479;53.514;9.994;2022-11-23T10:08:29;7.30;99.90
981;DHT22;479;53.514;9.994;2022-11-23T10:11:10;7.30;99.90
981;DHT22;479;53.514;9.994;2022-11-23T10:13:44;7.50;99.90
981;DHT22;479;53.514;9.994;2022-11-23T10:16:26;7.80;99.90
981;DHT22;479;53.514;9.994;2022-11-23T10:18:59;8.20;99.90
981;DHT22;479;53.514;9.994;2022-11-23T10:21:34;8.80;99.90
981;DHT22;479;53.514;9.994;2022-11-23T10:24:12;9.30;99.90
981;DHT22;479;53.514;9.994;2022-11-23T10:26:45;9.50;99.90
981;DHT22;479;53.514;9.994;2022-11-23T10:29:15;9.30;99.90
981;DHT22;479;53.514;9.994;2022-11-23T10:31:45;9.00;99.90
981;DHT22;479;53.514;9.994;2022-11-23T10:34:13;8.70;99.90
981;DHT22;479;53.514;9.994;2022-11-23T10:36:41;8.50;99.90
981;DHT22;479;53.514;9.994;2022-11-23T10:39:17;8.60;99.90
981;DHT22;479;53.514;9.994;2022-11-23T10:41:45;8.90;99.90
981;DHT22;479;53.514;9.994;2022-11-23T10:44:27;8.80;99.90
981;DHT22;479;53.514;9.994;2022-11-23T10:46:55;8.60;99.90
981;DHT22;479;53.514;9.994;2022-11-23T10:49:23;8.40;99.90
981;DHT22;479;53.514;9.994;2022-11-23T10:52:01;8.10;99.90
981;DHT22;479;53.514;9.994;2022-11-23T10:54:32;8.00;99.90
981;DHT22;479;53.514;9.994;2022-11-23T10:57:01;7.90;99.90
981;DHT22;479;53.514;9.994;2022-11-23T10:59:32;7.70;99.90
981;DHT22;479;53.514;9.994;2022-11-23T11:02:14;7.70;99.90
981;DHT22;479;53.514;9.994;2022-11-23T11:04:42;7.60;99.90
981;DHT22;479;53.514;9.994;2022-11-23T11:07:20;7.50;99.90
981;DHT22;479;53.514;9.994;2022-11-23T11:09:51;7.50;99.90
981;DHT22;479;53.514;9.994;2022-11-23T11:12:18;7.50;99.90
981;DHT22;479;53.514;9.994;2022-11-23T11:14:59;7.40;99.90
981;DHT22;479;53.514;9.994;2022-11-23T11:17:31;7.40;99.90
981;DHT22;479;53.514;9.994;2022-11-23T11:19:58;7.40;99.90
981;DHT22;479;53.514;9.994;2022-11-23T11:22:31;7.40;99.90
981;DHT22;479;53.514;9.994;2022-11-23T11:25:00;7.40;99.90
981;DHT22;479;53.514;9.994;2022-11-23T11:27:29;7.40;99.90
981;DHT22;479;53.514;9.994;2022-11-23T11:30:00;7.40;99.90
981;DHT22;479;53.514;9.994;2022-11-23T11:32:35;7.50;99.90
981;DHT22;479;53.514;9.994;2022-11-23T11:35:10;7.60;99.90
981;DHT22;479;53.514;9.994;2022-11-23T11:37:41;7.70;99.90
981;DHT22;479;53.514;9.994;2022-11-23T11:40:18;7.80;99.90
981;DHT22;479;53.514;9.994;2022-11-23T11:42:49;7.80;99.90
981;DHT22;479;53.514;9.994;2022-11-23T11:45:21;7.90;99.90
981;DHT22;479;53.514;9.994;2022-11-23T11:47:55;7.90;99.90
981;DHT22;479;53.514;9.994;2022-11-23T11:50:25;8.00;99.90
981;DHT22;479;53.514;9.994;2022-11-23T11:52:59;8.00;99.90
981;DHT22;479;53.514;9.994;2022-11-23T11:55:32;8.10;99.90
981;DHT22;479;53.514;9.994;2022-11-23T11:58:03;8.20;99.90
981;DHT22;479;53.514;9.994;2022-11-23T12:00:33;8.30;99.90
981;DHT22;479;53.514;9.994;2022-11-23T12:03:07;8.40;99.90
981;DHT22;479;53.514;9.994;2022-11-23T12:05:40;8.50;99.90
981;DHT22;479;53.514;9.994;2022-11-23T12:08:12;8.40;99.90
981;DHT22;479;53.514;9.994;2022-11-23T12:10:47;8.40;99.90
981;DHT22;479;53.514;9.994;2022-11-23T12:13:17;8.30;99.90
981;DHT22;479;53.514;9.994;2022-11-23T12:15:47;8.30;99.90
981;DHT22;479;53.514;9.994;2022-11-23T12:21:26;8.30;99.90
981;DHT22;479;53.514;9.994;2022-11-23T12:24:06;8.30;99.90
981;DHT22;479;53.514;9.994;2022-11-23T12:26:45;8.30;99.90
981;DHT22;479;53.514;9.994;2022-11-23T12:29:40;8.30;99.90
981;DHT22;479;53.514;9.994;2022-11-23T12:32:21;8.30;99.90
981;DHT22;479;53.514;9.994;2022-11-23T12:35:13;8.40;99.90
981;DHT22;479;53.514;9.994;2022-11-23T12:37:52;8.30;99.90
981;DHT22;479;53.514;9.994;2022-11-23T12:40:40;8.30;99.90
981;DHT22;479;53.514;9.994;2022-11-23T12:43:14;8.30;99.90
981;DHT22;479;53.514;9.994;2022-11-23T12:45:53;8.30;99.90
981;DHT22;479;53.514;9.994;2022-11-23T12:48:31;8.30;99.90
981;DHT22;479;53.514;9.994;2022-11-23T12:51:09;8.30;99.90
981;DHT22;479;53.514;9.994;2022-11-23T12:53:45;8.30;99.90
981;DHT22;479;53.514;9.994;2022-11-23T12:56:23;8.30;99.90
981;DHT22;479;53.514;9.994;2022-11-23T12:58:57;8.30;99.90
981;DHT22;479;53.514;9.994;2022-11-23T13:01:27;8.30;99.90
981;DHT22;479;53.514;9.994;2022-11-23T13:07:42;8.40;99.90
981;DHT22;479;53.514;9.994;2022-11-23T13:10:25;8.40;99.90
981;DHT22;479;53.514;9.994;2022-11-23T13:13:18;8.40;99.90
981;DHT22;479;53.514;9.994;2022-11-23T13:18:52;8.40;99.90
981;DHT22;479;53.514;9.994;2022-11-23T13:21:26;8.50;99.90
981;DHT22;479;53.514;9.994;2022-11-23T13:23:54;8.50;99.90
981;DHT22;479;53.514;9.994;2022-11-23T13:26:23;8.50;99.90
981;DHT22;479;53.514;9.994;2022-11-23T13:28:51;8.50;99.90
981;DHT22;479;53.514;9.994;2022-11-23T13:31:29;8.50;99.90
981;DHT22;479;53.514;9.994;2022-11-23T13:33:57;8.60;99.90
981;DHT22;479;53.514;9.994;2022-11-23T13:36:43;8.60;99.90
981;DHT22;479;53.514;9.994;2022-11-23T13:40:00;8.60;99.90
981;DHT22;479;53.514;9.994;2022-11-23T13:42:30;8.60;99.90
981;DHT22;479;53.514;9.994;2022-11-23T13:45:26;8.60;99.90
981;DHT22;479;53.514;9.994;2022-11-23T13:48:11;8.60;99.90
981;DHT22;479;53.514;9.994;2022-11-23T13:50:55;8.60;99.90
981;DHT22;479;53.514;9.994;2022-11-23T13:53:24;8.60;99.90
981;DHT22;479;53.514;9.994;2022-11-23T13:55:53;8.60;99.90
981;DHT22;479;53.514;9.994;2022-11-23T13:58:36;8.60;99.90
981;DHT22;479;53.514;9.994;2022-11-23T14:01:03;8.60;99.90
981;DHT22;479;53.514;9.994;2022-11-23T14:03:50;8.60;99.90
981;DHT22;479;53.514;9.994;2022-11-23T14:06:25;8.70;99.90
981;DHT22;479;53.514;9.994;2022-11-23T14:09:00;8.60;99.90
981;DHT22;479;53.514;9.994;2022-11-23T14:11:27;8.60;99.90
981;DHT22;479;53.514;9.994;2022-11-23T14:13:57;8.60;99.90
981;DHT22;479;53.514;9.994;2022-11-23T14:16:39;8.60;99.90
981;DHT22;479;53.514;9.994;2022-11-23T14:19:19;8.60;99.90
981;DHT22;479;53.514;9.994;2022-11-23T14:21:54;8.50;99.90
981;DHT22;479;53.514;9.994;2022-11-23T14:25:00;8.50;99.90
981;DHT22;479;53.514;9.994;2022-11-23T14:27:40;8.50;99.90
981;DHT22;479;53.514;9.994;2022-11-23T14:30:26;8.40;99.90
981;DHT22;479;53.514;9.994;2022-11-23T14:33:20;8.40;99.90
981;DHT22;479;53.514;9.994;2022-11-23T14:35:56;8.40;99.90
981;DHT22;479;53.514;9.994;2022-11-23T14:41:28;8.30;99.90
981;DHT22;479;53.514;9.994;2022-11-23T14:44:00;8.30;99.90
981;DHT22;479;53.514;9.994;2022-11-23T14:46:27;8.30;99.90
981;DHT22;479;53.514;9.994;2022-11-23T14:49:02;8.20;99.90
981;DHT22;479;53.514;9.994;2022-11-23T14:51:32;8.20;99.90
981;DHT22;479;53.514;9.994;2022-11-23T14:54:01;8.10;99.90
981;DHT22;479;53.514;9.994;2022-11-23T14:56:34;8.00;99.90
981;DHT22;479;53.514;9.994;2022-11-23T14:59:05;8.00;99.90
981;DHT22;479;53.514;9.994;2022-11-23T15:01:33;7.90;99.90
981;DHT22;479;53.514;9.994;2022-11-23T15:04:07;7.90;99.90
981;DHT22;479;53.514;9.994;2022-11-23T15:06:39;7.80;99.90
981;DHT22;479;53.514;9.994;2022-11-23T15:09:18;7.70;99.90
981;DHT22;479;53.514;9.994;2022-11-23T15:11:46;7.60;99.90
981;DHT22;479;53.514;9.994;2022-11-23T15:14:19;7.50;99.90
981;DHT22;479;53.514;9.994;2022-11-23T15:16:46;7.50;99.90
981;DHT22;479;53.514;9.994;2022-11-23T15:19:18;7.30;99.90
981;DHT22;479;53.514;9.994;2022-11-23T15:21:46;7.30;99.90
981;DHT22;479;53.514;9.994;2022-11-23T15:24:20;7.20;99.90
981;DHT22;479;53.514;9.994;2022-11-23T15:26:48;7.10;99.90
981;DHT22;479;53.514;9.994;2022-11-23T15:29:28;7.10;99.90
981;DHT22;479;53.514;9.994;2022-11-23T15:31:58;7.00;99.90
981;DHT22;479;53.514;9.994;2022-11-23T15:34:25;7.00;99.90
981;DHT22;479;53.514;9.994;2022-11-23T15:36:54;6.90;99.90
981;DHT22;479;53.514;9.994;2022-11-23T15:39:22;6.80;99.90
981;DHT22;479;53.514;9.994;2022-11-23T15:41:50;6.80;99.90
981;DHT22;479;53.514;9.994;2022-11-23T15:44:22;6.70;99.90
981;DHT22;479;53.514;9.994;2022-11-23T15:46:51;6.70;99.90
981;DHT22;479;53.514;9.994;2022-11-23T15:49:19;6.60;99.90
981;DHT22;479;53.514;9.994;2022-11-23T15:51:46;6.60;99.90
981;DHT22;479;53.514;9.994;2022-11-23T15:54:18;6.50;99.90
981;DHT22;479;53.514;9.994;2022-11-23T15:56:47;6.50;99.90
981;DHT22;479;53.514;9.994;2022-11-23T15:59:29;6.50;99.90
981;DHT22;479;53.514;9.994;2022-11-23T16:01:58;6.40;99.90
981;DHT22;479;53.514;9.994;2022-11-23T16:04:29;6.40;99.90
981;DHT22;479;53.514;9.994;2022-11-23T16:07:05;6.40;99.90
981;DHT22;479;53.514;9.994;2022-11-23T16:09:38;6.30;99.90
981;DHT22;479;53.514;9.994;2022-11-23T16:12:28;6.30;99.90
981;DHT22;479;53.514;9.994;2022-11-23T16:15:29;6.30;99.90
981;DHT22;479;53.514;9.994;2022-11-23T16:17:58;6.30;99.90
981;DHT22;479;53.514;9.994;2022-11-23T16:20:27;6.30;99.90
981;DHT22;479;53.514;9.994;2022-11-23T16:22:55;6.20;99.90
981;DHT22;479;53.514;9.994;2022-11-23T16:25:27;6.20;99.90
981;DHT22;479;53.514;9.994;2022-11-23T16:27:57;6.20;99.90
981;DHT22;479;53.514;9.994;2022-11-23T16:30:33;6.10;99.90
981;DHT22;479;53.514;9.994;2022-11-23T16:33:01;6.10;99.90
981;DHT22;479;53.514;9.994;2022-11-23T16:35:28;6.10;99.90
981;DHT22;479;53.514;9.994;2022-11-23T16:37:55;6.00;99.90
981;DHT22;479;53.514;9.994;2022-11-23T16:40:22;6.00;99.90
981;DHT22;479;53.514;9.994;2022-11-23T16:42:51;6.00;99.90
981;DHT22;479;53.514;9.994;2022-11-23T16:45:18;5.90;99.90
981;DHT22;479;53.514;9.994;2022-11-23T16:47:53;6.00;99.90
981;DHT22;479;53.514;9.994;2022-11-23T16:50:21;5.90;99.90
981;DHT22;479;53.514;9.994;2022-11-23T16:52:48;5.90;99.90
981;DHT22;479;53.514;9.994;2022-11-23T16:55:14;5.90;99.90
981;DHT22;479;53.514;9.994;2022-11-23T16:57:42;5.90;99.90
981;DHT22;479;53.514;9.994;2022-11-23T17:00:14;5.90;99.90
981;DHT22;479;53.514;9.994;2022-11-23T17:02:41;5.90;99.90
981;DHT22;479;53.514;9.994;2022-11-23T17:05:13;5.80;99.90
981;DHT22;479;53.514;9.994;2022-11-23T17:07:40;5.80;99.90
981;DHT22;479;53.514;9.994;2022-11-23T17:10:07;5.80;99.90
981;DHT22;479;53.514;9.994;2022-11-23T17:12:34;5.70;99.90
981;DHT22;479;53.514;9.994;2022-11-23T17:15:03;5.70;99.90
981;DHT22;479;53.514;9.994;2022-11-23T17:17:32;5.60;99.90
981;DHT22;479;53.514;9.994;2022-11-23T17:19:59;5.60;99.90
981;DHT22;479;53.514;9.994;2022-11-23T17:22:26;5.60;99.90
981;DHT22;479;53.514;9.994;2022-11-23T17:24:52;5.50;99.90
981;DHT22;479;53.514;9.994;2022-11-23T17:27:21;5.50;99.90
981;DHT22;479;53.514;9.994;2022-11-23T17:29:53;5.50;99.90